Time;durP1;ratioP1;P1;durP2;ratioP2;P2;SDS_P1;SDS_P2;PMS_P1;PMS_P2;Temp;Humidity;BMP_temperature;BMP_pressure;BME280_temperature;BME280_humidity;BME280_pressure;Samples;Min_cycle;Max_cycle;Signal;HPM_P1;HPM_P2
2023/06/13 00:02:10;;;;;;;5.28;3.85;;;;;;;21.47;39.87;101291.44;4861974;29;20041;-74
2023/06/13 00:04:35;;;;;;;4.45;3.42;;;;;;;21.41;40.93;101285.38;4861591;29;20085;-74
2023/06/13 00:07:01;;;;;;;4.07;3.30;;;;;;;21.36;41.45;101285.41;4842479;29;20062;-74
2023/06/13 00:09:28;;;;;;;5.57;3.50;;;;;;;21.29;39.86;101284.66;4844489;29;20068;-74
2023/06/13 00:11:54;;;;;;;6.57;3.70;;;;;;;21.24;39.08;101282.97;4844643;29;20026;-74
2023/06/13 00:14:21;;;;;;;5.70;3.95;;;;;;;21.17;40.07;101282.16;4843541;29;20029;-74
2023/06/13 00:16:47;;;;;;;5.00;3.53;;;;;;;21.22;41.90;101282.09;4842939;29;20070;-74
2023/06/13 00:19:13;;;;;;;4.82;3.70;;;;;;;21.04;40.47;101283.22;4842357;29;20075;-74
2023/06/13 00:21:39;;;;;;;7.05;3.40;;;;;;;21.01;41.55;101279.72;4843087;29;20038;-74
2023/06/13 00:24:05;;;;;;;4.95;3.63;;;;;;;20.97;41.22;101274.47;4843754;29;20037;-74
2023/06/13 00:26:30;;;;;;;6.03;3.60;;;;;;;20.97;41.59;101280.66;4856442;29;20037;-74
2023/06/13 00:28:55;;;;;;;4.93;3.55;;;;;;;20.96;42.30;101272.72;4843052;29;20081;-74
2023/06/13 00:31:20;;;;;;;4.05;3.47;;;;;;;20.89;42.06;101284.31;4842075;29;20339;-74
2023/06/13 00:33:50;;;;;;;4.50;3.40;;;;;;;20.81;41.46;101285.28;4841989;29;20482;-74
2023/06/13 00:36:16;;;;;;;4.63;3.47;;;;;;;20.79;41.37;101280.88;4843728;29;20553;-74
2023/06/13 00:38:42;;;;;;;5.85;3.60;;;;;;;20.77;42.58;101285.28;4842840;29;20197;-74
2023/06/13 00:41:08;;;;;;;4.10;3.70;;;;;;;20.66;42.16;101286.31;4843889;29;20030;-74
2023/06/13 00:43:34;;;;;;;4.00;3.40;;;;;;;20.66;43.51;101281.00;4842682;29;20025;-74
2023/06/13 00:46:00;;;;;;;6.25;3.60;;;;;;;20.62;43.18;101284.56;4841541;29;20048;-74
2023/06/13 00:48:26;;;;;;;4.22;3.63;;;;;;;20.60;42.26;101281.03;4842160;29;20040;-74
2023/06/13 00:50:52;;;;;;;5.18;3.95;;;;;;;20.54;42.29;101270.53;4841153;29;20489;-74
2023/06/13 00:53:19;;;;;;;4.72;3.80;;;;;;;20.51;42.35;101273.22;4841352;29;20152;-74
2023/06/13 00:55:46;;;;;;;5.45;3.80;;;;;;;20.50;43.56;101276.75;4842776;29;20029;-74
2023/06/13 00:58:12;;;;;;;7.68;3.90;;;;;;;20.45;42.89;101283.84;4843503;29;20060;-74
2023/06/13 01:00:39;;;;;;;4.90;3.60;;;;;;;20.34;43.22;101286.63;4841517;29;20037;-74
2023/06/13 01:03:09;;;;;;;4.63;3.50;;;;;;;20.29;43.97;101281.38;4841904;29;20033;-74
2023/06/13 01:05:35;;;;;;;5.18;3.40;;;;;;;20.25;44.12;101277.00;4840619;29;21642;-74
2023/06/13 01:08:06;;;;;;;5.50;3.47;;;;;;;20.18;43.96;101275.31;4841009;29;20054;-74
2023/06/13 01:10:32;;;;;;;6.47;3.80;;;;;;;20.15;44.36;101277.97;4843227;29;20178;-74
2023/06/13 01:13:07;;;;;;;6.93;3.83;;;;;;;20.02;43.66;101271.06;4842997;29;20197;-74
2023/06/13 01:15:36;;;;;;;5.10;3.55;;;;;;;20.01;44.51;101274.59;4842168;29;20497;-74
2023/06/13 01:18:05;;;;;;;4.25;3.67;;;;;;;19.99;44.20;101271.94;4839853;29;20042;-74
2023/06/13 01:20:32;;;;;;;5.07;3.88;;;;;;;19.96;44.58;101272.84;4842201;29;20082;-74
2023/06/13 01:23:30;;;;;;;4.22;3.55;;;;;;;19.92;44.17;101276.41;4843133;29;20057;-74
2023/06/13 01:26:03;;;;;;;5.37;3.90;;;;;;;19.91;44.34;101279.06;4840826;29;20044;-74
2023/06/13 01:28:33;;;;;;;4.88;3.72;;;;;;;19.84;44.18;101275.59;4841060;29;20302;-74
2023/06/13 01:31:00;;;;;;;4.90;3.60;;;;;;;19.85;44.58;101279.13;4839746;29;20113;-74
2023/06/13 01:33:25;;;;;;;4.63;3.80;;;;;;;19.79;44.72;101272.13;4842029;29;20037;-74
2023/06/13 01:35:51;;;;;;;6.25;3.90;;;;;;;19.70;44.42;101272.16;4840742;29;20029;-74
2023/06/13 01:38:17;;;;;;;4.55;3.90;;;;;;;19.70;45.62;101274.81;4843482;29;20634;-74
2023/06/13 01:40:42;;;;;;;5.28;3.67;;;;;;;19.62;45.22;101274.84;4842487;29;20034;-74
2023/06/13 01:43:08;;;;;;;5.40;3.80;;;;;;;19.55;46.32;101278.41;4843048;29;20048;-74
2023/06/13 01:45:33;;;;;;;4.70;4.00;;;;;;;19.48;45.69;101271.41;4843065;29;20033;-74
2023/06/13 01:48:01;;;;;;;4.88;4.35;;;;;;;19.36;45.26;101278.53;4842861;29;20509;-74
2023/06/13 01:50:35;;;;;;;5.32;4.10;;;;;;;19.35;45.64;101274.16;4841066;29;20029;-74
2023/06/13 01:53:10;;;;;;;5.25;4.40;;;;;;;19.33;46.45;101275.03;4840701;29;20039;-75
2023/06/13 01:55:42;;;;;;;5.25;4.20;;;;;;;19.23;46.01;101259.25;4841542;29;20029;-74
2023/06/13 01:58:19;;;;;;;5.65;4.18;;;;;;;19.14;46.66;101264.56;4841413;29;20051;-74
2023/06/13 02:00:47;;;;;;;5.65;4.10;;;;;;;19.07;46.23;101260.19;4841746;29;20037;-74
2023/06/13 02:03:13;;;;;;;5.75;4.22;;;;;;;18.97;46.56;101259.34;4839820;29;20060;-74
2023/06/13 02:05:39;;;;;;;5.30;4.18;;;;;;;18.86;47.10;101255.88;4842217;29;20037;-74
2023/06/13 02:08:04;;;;;;;4.97;3.92;;;;;;;18.82;47.65;101257.63;4839718;29;20054;-74
2023/06/13 02:10:29;;;;;;;5.55;4.00;;;;;;;18.80;47.90;101253.22;4840227;29;20023;-74
2023/06/13 02:12:55;;;;;;;6.68;4.00;;;;;;;18.79;47.54;101255.00;4845733;29;20029;-74
2023/06/13 02:15:20;;;;;;;5.22;4.00;;;;;;;18.76;48.25;101260.31;4845619;29;20097;-74
2023/06/13 02:17:46;;;;;;;5.15;3.90;;;;;;;18.74;48.08;101262.06;4844841;29;20045;-74
2023/06/13 02:20:12;;;;;;;5.03;4.30;;;;;;;18.71;48.78;101256.78;4845279;29;20587;-74
2023/06/13 02:22:37;;;;;;;5.90;4.30;;;;;;;18.65;48.30;101255.03;4843404;29;20134;-74
2023/06/13 02:25:04;;;;;;;5.88;4.20;;;;;;;18.65;48.69;101259.44;4845007;29;20037;-74
2023/06/13 02:27:29;;;;;;;5.35;4.13;;;;;;;18.59;48.88;101265.63;4842084;29;20152;-74
2023/06/13 02:29:55;;;;;;;5.80;4.38;;;;;;;18.51;48.36;101263.03;4846298;29;20120;-74
2023/06/13 02:32:22;;;;;;;6.43;4.10;;;;;;;18.48;48.38;101262.13;4844684;29;20058;-74
2023/06/13 02:34:48;;;;;;;5.18;4.20;;;;;;;18.51;48.57;101260.38;4844649;29;20228;-74
2023/06/13 02:37:13;;;;;;;6.30;4.55;;;;;;;18.49;49.09;101264.78;4844050;29;20098;-74
2023/06/13 02:39:38;;;;;;;4.70;3.90;;;;;;;18.47;49.79;101260.41;4845255;29;20473;-74
2023/06/13 02:42:04;;;;;;;7.47;4.28;;;;;;;18.44;48.72;101266.56;4846232;29;20029;-74
2023/06/13 02:44:29;;;;;;;5.80;4.40;;;;;;;18.42;49.43;101269.19;4846087;29;20037;-74
2023/06/13 02:46:55;;;;;;;6.05;4.43;;;;;;;18.39;48.88;101265.66;4844637;29;20038;-74
2023/06/13 02:49:20;;;;;;;6.03;4.43;;;;;;;18.36;48.75;101265.69;4844194;29;20022;-74
2023/06/13 02:51:45;;;;;;;4.70;4.00;;;;;;;18.31;48.87;101264.84;4844630;29;20390;-74
2023/06/13 02:54:11;;;;;;;7.35;4.75;;;;;;;18.30;49.51;101270.97;4843220;29;20033;-74
2023/06/13 02:56:38;;;;;;;5.45;4.40;;;;;;;18.25;49.25;101266.59;4845160;29;20091;-74
2023/06/13 02:59:03;;;;;;;5.38;4.18;;;;;;;18.22;49.84;101265.72;4845601;29;20034;-74
2023/06/13 03:01:29;;;;;;;6.35;4.47;;;;;;;18.14;49.62;101273.63;4844784;29;20089;-74
2023/06/13 03:03:54;;;;;;;6.13;4.65;;;;;;;18.01;50.01;101266.59;4841004;29;20041;-74
2023/06/13 03:06:20;;;;;;;5.88;4.63;;;;;;;17.95;50.43;101263.97;4845607;29;20034;-74
2023/06/13 03:08:45;;;;;;;5.22;4.40;;;;;;;17.92;50.69;101266.63;4842126;29;20104;-74
2023/06/13 03:11:12;;;;;;;6.68;4.90;;;;;;;17.89;51.05;101265.69;4845327;29;20029;-74
2023/06/13 03:13:38;;;;;;;5.68;4.95;;;;;;;17.82;50.68;101261.28;4843924;29;20068;-74
2023/06/13 03:16:04;;;;;;;6.25;5.30;;;;;;;17.81;51.37;101264.81;4845627;29;20029;-74
2023/06/13 03:18:29;;;;;;;6.03;5.03;;;;;;;17.79;51.52;101261.28;4845410;29;20161;-74
2023/06/13 03:20:55;;;;;;;6.43;5.25;;;;;;;17.76;51.05;101266.56;4841255;29;20038;-74
2023/06/13 03:23:20;;;;;;;6.95;5.25;;;;;;;17.73;51.26;101262.16;4843084;29;20185;-74
2023/06/13 03:25:46;;;;;;;6.88;5.18;;;;;;;17.69;51.75;101265.69;4843872;29;20112;-74
2023/06/13 03:28:11;;;;;;;8.45;5.32;;;;;;;17.69;51.87;101268.31;4841217;29;20433;-74
2023/06/13 03:30:37;;;;;;;8.40;5.57;;;;;;;17.66;51.13;101268.31;4843354;29;20100;-74
2023/06/13 03:33:03;;;;;;;6.38;5.25;;;;;;;17.62;51.39;101268.31;4844269;29;20113;-74
2023/06/13 03:35:28;;;;;;;6.97;5.78;;;;;;;17.60;51.67;101264.78;4844341;29;20454;-74
2023/06/13 03:37:54;;;;;;;6.57;5.38;;;;;;;17.57;51.46;101255.13;4844744;29;20041;-74
2023/06/13 03:40:19;;;;;;;6.82;5.25;;;;;;;17.55;52.38;101257.78;4843066;29;20085;-74
2023/06/13 03:42:44;;;;;;;6.68;5.57;;;;;;;17.50;51.82;101250.75;4844904;29;20030;-74
2023/06/13 03:45:10;;;;;;;6.53;5.38;;;;;;;17.50;52.49;101259.50;4844443;29;20058;-74
2023/06/13 03:47:35;;;;;;;8.05;5.43;;;;;;;17.51;52.70;101255.09;4842337;29;20103;-74
2023/06/13 03:50:01;;;;;;;7.75;5.57;;;;;;;17.50;52.24;101259.50;4843280;29;20112;-74
2023/06/13 03:52:26;;;;;;;7.60;5.65;;;;;;;17.47;52.11;101259.50;4845077;29;20029;-74
2023/06/13 03:54:51;;;;;;;7.95;5.82;;;;;;;17.45;52.28;101258.63;4844986;29;20065;-74
2023/06/13 03:57:17;;;;;;;8.70;5.63;;;;;;;17.47;52.42;101264.78;4843735;29;20046;-74
2023/06/13 03:59:42;;;;;;;6.25;5.65;;;;;;;17.46;53.04;101260.38;4842538;29;20040;-74
2023/06/13 04:02:07;;;;;;;6.80;5.70;;;;;;;17.44;53.29;101262.16;4843599;29;20034;-74
2023/06/13 04:04:33;;;;;;;7.22;5.72;;;;;;;17.47;52.82;101263.91;4843897;29;20158;-74
2023/06/13 04:07:05;;;;;;;6.40;5.60;;;;;;;17.43;52.99;101257.75;4841363;29;20058;-74
2023/06/13 04:09:31;;;;;;;8.23;5.68;;;;;;;17.40;53.43;101257.75;4843042;29;20096;-74
2023/06/13 04:11:56;;;;;;;6.40;5.70;;;;;;;17.38;54.06;101264.78;4844250;29;20493;-74
2023/06/13 04:14:21;;;;;;;8.77;5.53;;;;;;;17.36;54.28;101261.25;4841661;29;20037;-74
2023/06/13 04:16:47;;;;;;;8.68;5.57;;;;;;;17.32;54.36;101262.09;4844387;29;20030;-74
2023/06/13 04:19:18;;;;;;;6.72;5.70;;;;;;;17.31;53.92;101265.63;4842635;29;20030;-74
2023/06/13 04:21:45;;;;;;;6.85;5.47;;;;;;;17.31;53.88;101265.63;4841304;29;20116;-74
2023/06/13 04:24:12;;;;;;;6.55;5.65;;;;;;;17.33;55.03;101269.13;4843074;29;20513;-74
2023/06/13 04:26:37;;;;;;;8.00;5.93;;;;;;;17.33;54.34;101271.78;4843352;29;20493;-74
2023/06/13 04:29:03;;;;;;;8.98;6.30;;;;;;;17.36;55.20;101271.78;4842141;29;20030;-74
2023/06/13 04:31:34;;;;;;;6.63;5.82;;;;;;;17.33;54.82;101275.28;4844316;29;20030;-75
2023/06/13 04:34:03;;;;;;;8.15;6.53;;;;;;;17.28;55.15;101268.22;4843217;29;20394;-74
2023/06/13 04:36:28;;;;;;;7.00;5.97;;;;;;;17.27;55.19;101267.38;4843133;29;20049;-74
2023/06/13 04:38:53;;;;;;;7.57;6.65;;;;;;;17.24;56.89;101275.25;4842038;29;20046;-74
2023/06/13 04:41:19;;;;;;;7.65;6.20;;;;;;;17.12;54.36;101281.38;4843765;29;20045;-74
2023/06/13 04:43:45;;;;;;;6.93;6.22;;;;;;;17.07;55.99;101283.09;4843377;29;20041;-74
2023/06/13 04:46:10;;;;;;;7.90;7.10;;;;;;;17.09;56.41;101284.00;4842641;29;20022;-74
2023/06/13 04:48:37;;;;;;;8.05;7.13;;;;;;;17.10;56.42;101280.47;4842068;29;20109;-74
2023/06/13 04:51:03;;;;;;;9.13;6.55;;;;;;;17.09;56.46;101285.72;4838524;29;20044;-74
2023/06/13 04:53:29;;;;;;;7.30;6.60;;;;;;;17.09;57.20;101278.72;4841466;29;20037;-74
2023/06/13 04:55:57;;;;;;;8.52;6.47;;;;;;;17.11;57.25;101284.00;4842302;29;20053;-74
2023/06/13 04:58:23;;;;;;;7.55;6.57;;;;;;;17.11;56.78;101281.38;4843216;29;20044;-74
2023/06/13 05:00:50;;;;;;;7.68;6.30;;;;;;;17.13;57.47;101285.78;4841386;29;20518;-74
2023/06/13 05:03:17;;;;;;;7.68;6.25;;;;;;;17.14;57.10;101286.66;4842357;29;20105;-74
2023/06/13 05:05:43;;;;;;;7.82;6.70;;;;;;;17.17;54.58;101291.91;4838947;29;20030;-74
2023/06/13 05:08:09;;;;;;;8.63;6.30;;;;;;;17.21;57.89;101298.97;4841934;29;20053;-74
2023/06/13 05:10:35;;;;;;;7.72;6.05;;;;;;;17.20;56.24;101298.06;4839275;29;20034;-74
2023/06/13 05:13:01;;;;;;;7.75;5.53;;;;;;;17.25;55.77;101302.47;4842465;29;20078;-74
2023/06/13 05:15:26;;;;;;;7.45;5.97;;;;;;;17.28;57.07;101294.56;4841929;29;20083;-74
2023/06/13 05:17:54;;;;;;;6.65;5.80;;;;;;;17.32;55.83;101296.34;4843785;29;20042;-74
2023/06/13 05:20:26;;;;;;;7.93;5.82;;;;;;;17.35;56.21;101304.25;4839564;29;20042;-74
2023/06/13 05:22:54;;;;;;;8.93;6.03;;;;;;;17.36;55.97;101306.88;4840735;29;20038;-74
2023/06/13 05:25:20;;;;;;;6.78;5.68;;;;;;;17.36;57.10;101298.13;4842589;29;20029;-74
2023/06/13 05:27:46;;;;;;;6.32;5.70;;;;;;;17.35;56.15;101301.63;4841097;29;20033;-74
2023/06/13 05:30:11;;;;;;;7.07;5.72;;;;;;;17.40;56.43;101299.03;4838281;29;20053;-74
2023/06/13 05:32:37;;;;;;;6.25;5.22;;;;;;;17.44;55.21;101300.75;4841175;29;20109;-74
2023/06/13 05:35:03;;;;;;;7.03;5.40;;;;;;;17.51;57.18;101308.69;4841489;29;20403;-74
2023/06/13 05:37:28;;;;;;;7.90;5.65;;;;;;;17.56;55.69;101303.44;4843113;29;20041;-74
2023/06/13 05:39:55;;;;;;;8.20;5.93;;;;;;;17.65;56.20;101294.66;4842331;29;20068;-74
2023/06/13 05:42:20;;;;;;;8.57;5.85;;;;;;;17.73;56.43;101298.22;4841955;29;20085;-75
2023/06/13 05:44:45;;;;;;;7.45;6.10;;;;;;;17.83;55.26;101294.69;4842012;29;20046;-74
2023/06/13 05:47:11;;;;;;;7.50;5.85;;;;;;;17.92;55.61;101303.53;4838879;29;20152;-74
2023/06/13 05:49:36;;;;;;;7.80;6.15;;;;;;;18.00;54.14;101299.13;4839663;29;20033;-74
2023/06/13 05:52:01;;;;;;;8.50;6.05;;;;;;;18.07;54.33;101295.59;4845074;29;20037;-74
2023/06/13 05:54:26;;;;;;;7.35;6.30;;;;;;;18.15;53.33;101306.16;4845213;29;20086;-74
2023/06/13 05:56:52;;;;;;;7.30;5.93;;;;;;;18.29;53.95;101303.50;4846342;29;20070;-74
2023/06/13 05:59:17;;;;;;;8.73;5.85;;;;;;;18.39;53.67;101300.88;4846855;29;20043;-74
2023/06/13 06:01:43;;;;;;;6.70;5.97;;;;;;;18.50;54.07;101307.88;4844729;29;20477;-74
2023/06/13 06:04:09;;;;;;;9.77;6.75;;;;;;;18.63;52.19;101303.47;4842310;29;20034;-74
2023/06/13 06:06:34;;;;;;;7.13;6.00;;;;;;;18.72;53.29;101296.38;4843323;29;20029;-74
2023/06/13 06:09:00;;;;;;;7.65;5.68;;;;;;;18.84;52.86;101311.31;4844750;29;20128;-74
2023/06/13 06:11:25;;;;;;;7.25;6.25;;;;;;;18.94;52.33;101314.81;4845568;29;20041;-74
2023/06/13 06:13:51;;;;;;;9.45;5.50;;;;;;;19.01;53.52;101318.34;4847023;29;20036;-74
2023/06/13 06:16:16;;;;;;;6.63;5.40;;;;;;;19.14;53.37;101312.09;4844853;29;20569;-75
2023/06/13 06:18:41;;;;;;;7.95;6.00;;;;;;;19.22;50.85;101306.78;4844382;29;20462;-74
2023/06/13 06:21:07;;;;;;;6.07;5.38;;;;;;;19.29;51.18;101308.50;4844768;29;20029;-74
2023/06/13 06:23:32;;;;;;;8.65;5.75;;;;;;;19.39;50.03;101304.06;4846668;29;20040;-73
2023/06/13 06:25:57;;;;;;;22.50;7.15;;;;;;;19.42;50.24;101311.97;4846164;29;20157;-74
2023/06/13 06:28:22;;;;;;;6.07;5.45;;;;;;;19.51;50.78;101313.69;4844435;29;20036;-74
2023/06/13 06:30:48;;;;;;;7.80;5.50;;;;;;;19.59;51.07;101312.75;4845965;29;20158;-74
2023/06/13 06:33:14;;;;;;;7.55;5.22;;;;;;;19.66;52.16;101308.31;4843211;29;20029;-74
2023/06/13 06:35:39;;;;;;;7.15;5.88;;;;;;;19.79;51.26;101314.41;4844077;29;20033;-74
2023/06/13 06:38:04;;;;;;;6.97;5.88;;;;;;;19.89;49.83;101312.59;4843518;29;20044;-74
2023/06/13 06:40:30;;;;;;;6.70;5.63;;;;;;;19.89;50.18;101304.66;4845175;29;20034;-74
2023/06/13 06:42:55;;;;;;;7.22;5.53;;;;;;;19.93;51.44;101314.34;4843314;29;20040;-74
2023/06/13 06:45:21;;;;;;;7.20;5.75;;;;;;;20.06;51.24;101315.09;4845390;29;20041;-74
2023/06/13 06:47:46;;;;;;;6.75;5.75;;;;;;;20.14;49.22;101314.13;4842603;29;20516;-74
2023/06/13 06:50:12;;;;;;;7.78;5.93;;;;;;;20.23;48.20;101307.88;4844744;29;20034;-74
2023/06/13 06:52:37;;;;;;;6.30;5.70;;;;;;;20.30;49.19;101314.00;4838736;29;20434;-74
2023/06/13 06:55:02;;;;;;;8.68;5.78;;;;;;;20.30;48.07;101309.56;5007882;23;20433;-80
2023/06/13 06:57:28;;;;;;;7.28;5.95;;;;;;;20.36;48.44;101308.63;5006577;23;20578;-96
2023/06/13 07:00:01;;;;;;;7.45;5.55;;;;;;;20.49;49.69;101306.75;4869027;29;20043;-96
2023/06/13 07:02:38;;;;;;;6.80;5.85;;;;;;;20.55;48.66;101297.88;4889481;29;20044;-96
2023/06/13 07:05:07;;;;;;;7.75;5.72;;;;;;;20.58;48.65;101298.72;4879947;29;20024;-96
2023/06/13 07:07:38;;;;;;;;;;;;;;;20.68;48.30;101296.88;4876502;29;20045;-96
2023/06/13 07:10:26;;;;;;;7.72;5.68;;;;;;;20.74;49.38;101301.22;4880452;29;19919;-96
2023/06/13 07:12:57;;;;;;;7.55;5.65;;;;;;;20.82;48.22;101300.25;4882630;29;20069;-96
2023/06/13 07:15:39;;;;;;;7.45;5.60;;;;;;;20.98;49.51;101308.00;4880127;29;20077;-96
2023/06/13 07:18:05;;;;;;;7.05;5.93;;;;;;;21.05;47.76;101308.81;4876849;23;20060;-80
2023/06/13 07:20:30;;;;;;;7.45;6.20;;;;;;;21.02;46.66;101315.91;4862226;29;20026;-80
2023/06/13 07:22:55;;;;;;;7.40;5.90;;;;;;;21.06;48.61;101313.22;4860082;29;20055;-80
2023/06/13 07:25:21;;;;;;;6.13;5.20;;;;;;;21.22;46.56;101312.13;4862748;29;20096;-81
2023/06/13 07:27:46;;;;;;;8.48;5.55;;;;;;;21.17;46.05;101311.31;4977502;23;20036;-80
2023/06/13 07:30:11;;;;;;;6.72;5.88;;;;;;;21.14;44.86;101308.69;5012526;23;20416;-74
2023/06/13 07:32:37;;;;;;;7.85;5.13;;;;;;;21.27;46.68;101312.06;4859525;29;20527;-74
2023/06/13 07:35:03;;;;;;;8.73;5.10;;;;;;;21.46;48.02;101320.63;4859686;29;20043;-73
2023/06/13 07:37:28;;;;;;;7.47;5.15;;;;;;;21.63;45.86;101318.66;4855524;29;20048;-74
2023/06/13 07:39:53;;;;;;;7.93;5.22;;;;;;;21.71;46.25;101314.13;4862688;29;20068;-73
2023/06/13 07:42:19;;;;;;;7.20;5.25;;;;;;;21.70;45.21;101304.41;4862959;29;20036;-74
2023/06/13 07:44:44;;;;;;;7.70;5.80;;;;;;;21.77;45.27;101304.28;4862847;29;20620;-73
2023/06/13 07:47:10;;;;;;;6.03;5.20;;;;;;;21.88;46.03;101305.00;4859293;29;20041;-74
2023/06/13 07:49:35;;;;;;;6.40;5.10;;;;;;;22.08;47.23;101307.34;4862658;29;20144;-74
2023/06/13 07:52:01;;;;;;;7.00;5.20;;;;;;;22.13;46.56;101313.47;4863154;29;20046;-75
2023/06/13 07:54:26;;;;;;;7.72;4.78;;;;;;;22.24;45.16;101306.16;4859897;29;20040;-75
2023/06/13 07:56:52;;;;;;;7.07;5.30;;;;;;;22.24;42.92;101310.59;4863215;29;20138;-74
2023/06/13 07:59:17;;;;;;;6.82;4.80;;;;;;;22.38;46.99;101303.31;4861824;29;20036;-74
2023/06/13 08:01:42;;;;;;;6.68;5.38;;;;;;;22.37;43.99;101306.00;4860482;29;20103;-74
2023/06/13 08:04:08;;;;;;;6.78;4.90;;;;;;;22.54;45.31;101305.69;4856522;29;20143;-73
2023/06/13 08:06:33;;;;;;;5.53;4.72;;;;;;;22.66;44.46;101308.09;4858449;29;20041;-73
2023/06/13 08:08:58;;;;;;;6.97;5.20;;;;;;;22.71;43.54;101305.34;4861972;29;20082;-74
2023/06/13 08:11:24;;;;;;;6.13;5.07;;;;;;;22.79;44.05;101303.41;4862161;29;20025;-73
2023/06/13 08:13:49;;;;;;;6.38;4.80;;;;;;;22.91;44.05;101303.19;4862112;29;20033;-74
2023/06/13 08:16:14;;;;;;;6.05;4.97;;;;;;;23.12;43.09;101305.47;4861886;29;20420;-73
2023/06/13 08:18:40;;;;;;;6.57;5.05;;;;;;;23.31;44.79;101304.13;4863688;29;20129;-73
2023/06/13 08:21:05;;;;;;;6.72;4.93;;;;;;;23.36;44.57;101302.25;4861664;29;20025;-73
2023/06/13 08:23:30;;;;;;;7.45;4.93;;;;;;;23.49;43.33;101305.53;4862864;29;20056;-73
2023/06/13 08:25:56;;;;;;;6.90;5.10;;;;;;;23.54;40.72;101306.28;4861252;29;20025;-73
2023/06/13 08:28:21;;;;;;;6.63;5.00;;;;;;;23.57;41.83;101303.53;4861578;29;20753;-73
2023/06/13 08:30:47;;;;;;;7.50;5.13;;;;;;;23.68;41.48;101307.72;4854453;29;20060;-74
2023/06/13 08:33:13;;;;;;;5.95;4.93;;;;;;;23.81;41.79;101297.66;4855645;29;21053;-73
2023/06/13 08:35:38;;;;;;;6.78;4.60;;;;;;;23.90;42.11;101308.13;4852499;29;20027;-73
2023/06/13 08:38:03;;;;;;;6.47;4.60;;;;;;;24.20;42.45;101297.59;4853523;29;20565;-73
2023/06/13 08:40:28;;;;;;;6.38;4.78;;;;;;;24.47;43.85;101296.88;4854162;29;20120;-73
2023/06/13 08:42:54;;;;;;;6.18;5.05;;;;;;;24.58;39.40;101287.72;4854707;29;20044;-73
2023/06/13 08:45:19;;;;;;;8.00;4.65;;;;;;;24.62;40.88;101295.63;4853337;29;20496;-73
2023/06/13 08:47:47;;;;;;;6.90;4.95;;;;;;;24.65;40.78;101284.88;4855965;29;20037;-73
2023/06/13 08:50:18;;;;;;;7.43;5.07;;;;;;;24.72;38.88;101284.69;4854605;29;20130;-73
2023/06/13 08:52:47;;;;;;;7.50;5.28;;;;;;;24.68;39.68;101283.03;4853183;29;20029;-73
2023/06/13 08:55:14;;;;;;;;;;;;;;;24.86;39.07;101284.31;4854168;29;20033;-73
2023/06/13 08:57:41;;;;;;;5.40;4.63;;;;;;;24.81;38.92;101276.44;4854380;29;19927;-73
2023/06/13 09:00:11;;;;;;;5.38;4.60;;;;;;;24.91;40.23;101271.69;4854288;29;20055;-73
2023/06/13 09:02:42;;;;;;;5.80;4.97;;;;;;;25.03;39.76;101278.44;4853277;29;20037;-73
2023/06/13 09:05:10;;;;;;;7.05;4.85;;;;;;;25.03;36.99;101274.00;4853396;29;20033;-73
2023/06/13 09:07:35;;;;;;;6.00;4.70;;;;;;;25.07;37.59;101270.34;4854565;29;20121;-73
2023/06/13 09:10:01;;;;;;;6.68;4.60;;;;;;;25.09;39.07;101273.81;4854127;29;20112;-74
2023/06/13 09:12:27;;;;;;;7.70;4.78;;;;;;;25.36;37.53;101275.72;4854254;29;20033;-74
2023/06/13 09:14:52;;;;;;;7.10;4.57;;;;;;;25.47;37.07;101273.59;4852175;29;20466;-74
2023/06/13 09:17:17;;;;;;;8.40;5.03;;;;;;;25.65;35.75;101272.09;4852444;29;20037;-74
2023/06/13 09:24:47;;;;;;;7.45;5.70;;;;;;;25.85;35.72;101283.03;4908443;23;20513;-80
2023/06/13 09:27:14;;;;;;;7.45;6.68;;;;;;;25.87;35.47;101280.31;5043282;23;20876;-81
2023/06/13 09:29:39;;;;;;;6.75;5.13;;;;;;;25.74;34.66;101270.94;5016948;23;20057;-84
2023/06/13 09:32:05;;;;;;;8.32;5.47;;;;;;;25.85;35.85;101266.09;5226423;23;20061;-83
2023/06/13 09:34:31;;;;;;;6.82;4.72;;;;;;;25.93;35.46;101272.06;5197950;23;20046;-79
2023/06/13 09:41:59;;;;;;;6.28;4.63;;;;;;;26.66;35.19;101261.53;4990620;23;20521;-79
2023/06/13 09:44:25;;;;;;;7.45;4.28;;;;;;;26.83;34.18;101258.25;4924004;23;20057;-78
2023/06/13 09:46:52;;;;;;;5.13;4.28;;;;;;;26.70;33.66;101269.41;5032076;23;20653;-76
2023/06/13 09:49:18;;;;;;;5.60;4.10;;;;;;;26.67;34.08;101263.28;4953573;23;20408;-77
2023/06/13 09:54:14;;;;;;;4.85;4.10;;;;;;;26.48;32.08;101263.94;5119089;23;20918;-77
2023/06/13 09:56:43;;;;;;;9.77;4.20;;;;;;;26.52;34.75;101260.25;5201435;23;20028;-77
2023/06/13 10:02:16;;;;;;;6.18;4.10;;;;;;;26.94;31.41;101260.50;5201285;23;20087;31
2023/06/13 10:04:41;;;;;;;5.15;4.25;;;;;;;27.04;32.47;101257.44;4818378;29;21176;-77
2023/06/13 10:07:06;;;;;;;5.32;4.10;;;;;;;27.25;33.61;101261.06;5143142;23;20661;-78
2023/06/13 10:09:32;;;;;;;5.80;4.13;;;;;;;27.29;30.85;101259.16;5047716;23;20064;-80
2023/06/13 10:11:59;;;;;;;4.68;3.88;;;;;;;27.44;31.48;101260.34;4835480;29;20710;-79
2023/06/13 10:14:26;;;;;;;5.22;3.85;;;;;;;27.58;31.95;101252.63;4973127;23;20058;-81
2023/06/13 10:19:22;;;;;;;6.00;3.90;;;;;;;27.88;31.39;101259.44;4895233;23;20413;-80
2023/06/13 10:21:48;;;;;;;5.73;4.23;;;;;;;27.90;29.32;101255.75;4995470;23;20405;-79
2023/06/13 10:24:15;;;;;;;7.70;4.50;;;;;;;27.56;30.00;101254.50;5198237;23;20028;-81
2023/06/13 10:26:44;;;;;;;5.80;4.10;;;;;;;27.74;28.20;101252.00;5010751;23;20180;-81
2023/06/13 10:32:05;;;;;;;5.10;4.25;;;;;;;27.45;30.00;101255.91;5084493;23;20040;-78
2023/06/13 10:34:50;;;;;;;6.32;4.63;;;;;;;27.58;30.08;101252.63;5014520;23;20499;-78
2023/06/13 10:40:28;;;;;;;7.25;3.90;;;;;;;27.90;27.75;101257.59;5100764;23;20156;-79
2023/06/13 10:42:58;;;;;;;4.53;3.90;;;;;;;27.69;27.16;101264.69;5050575;23;20065;-78
2023/06/13 10:48:05;;;;;;;4.80;3.63;;;;;;;27.65;26.20;101253.25;4985331;23;20844;-79
2023/06/13 10:50:36;;;;;;;5.15;4.00;;;;;;;27.90;27.45;101247.72;4942046;23;20520;-77
2023/06/13 10:53:01;;;;;;;7.20;4.10;;;;;;;28.06;27.23;101250.66;4874593;23;20057;-77
2023/06/13 10:55:29;;;;;;;6.00;4.20;;;;;;;28.03;26.23;101247.25;5198839;23;20023;-77
2023/06/13 10:58:01;;;;;;;6.07;3.80;;;;;;;28.19;29.77;101242.09;4952727;23;20276;-79
2023/06/13 11:00:33;;;;;;;6.43;4.18;;;;;;;28.33;26.41;101242.34;5107522;23;1061571;-75
2023/06/13 11:03:10;;;;;;;4.60;4.03;;;;;;;28.33;26.64;101244.16;5177176;23;20069;-75
2023/06/13 11:08:25;;;;;;;4.72;4.25;;;;;;;28.27;26.50;101235.44;5308399;23;20040;-75
2023/06/13 11:10:52;;;;;;;4.82;4.13;;;;;;;28.47;27.24;101233.66;5224482;23;20334;-75
2023/06/13 11:15:48;;;;;;;8.70;3.90;;;;;;;29.05;28.53;101227.44;5071585;23;20402;-75
2023/06/13 11:18:14;;;;;;;5.30;4.07;;;;;;;28.95;25.91;101231.50;4850438;29;20101;-75
2023/06/13 11:20:52;;;;;;;5.75;3.97;;;;;;;28.78;27.48;101219.75;5168832;23;20152;-74
2023/06/13 11:23:21;;;;;;;5.63;3.92;;;;;;;29.16;29.02;101221.56;5039614;23;20060;-74
2023/06/13 11:25:48;;;;;;;7.20;3.88;;;;;;;29.10;25.60;101222.72;5146266;23;20069;-74
2023/06/13 11:28:14;;;;;;;4.30;3.88;;;;;;;28.78;25.39;101230.50;4851529;29;20081;-72
2023/06/13 11:30:44;;;;;;;6.45;4.00;;;;;;;28.86;27.04;101222.06;5024756;23;20405;-74
2023/06/13 11:33:11;;;;;;;5.50;4.00;;;;;;;29.08;27.98;101231.78;5009723;23;20206;-73
2023/06/13 11:35:38;;;;;;;4.20;3.67;;;;;;;28.97;25.77;101230.47;4966035;23;20057;-72
2023/06/13 11:38:09;;;;;;;4.30;3.90;;;;;;;29.23;28.14;101214.97;4852150;29;20184;-73
2023/06/13 11:40:39;;;;;;;7.13;4.15;;;;;;;29.41;27.34;101223.06;4924541;23;20120;-73
2023/06/13 11:43:06;;;;;;;5.45;4.40;;;;;;;29.33;27.54;101220.78;4874869;23;20617;-73
2023/06/13 11:45:31;;;;;;;4.80;4.30;;;;;;;29.61;25.17;101217.56;4969717;23;20037;-75
2023/06/13 11:47:59;;;;;;;6.03;4.30;;;;;;;29.55;28.78;101220.56;4988724;23;20137;-73
2023/06/13 11:50:26;;;;;;;5.03;4.18;;;;;;;29.47;25.46;101220.97;4851636;29;20037;-74
2023/06/13 11:58:00;;;;;;;4.97;4.10;;;;;;;29.63;27.65;101221.06;4916731;23;20092;-78
2023/06/13 12:02:58;;;;;;;5.13;4.05;;;;;;;29.58;25.40;101219.53;5217633;23;20297;-77
2023/06/13 12:05:23;;;;;;;5.30;4.13;;;;;;;29.14;26.33;101215.38;5033382;23;20124;-76